West Mystic, Connecticut
Current Conditions -  °F | °C
As of 7:56 PM on Tuesday 21 Oct 2014 (Local Time) from KGON Reporting Station
Overcast Overcast  
Wind Chill: 59°   Ceiling: 3400
Heat Index: 59°   Visibility: 10mi
Dew Point: 56°   Wind: 6mph
Humidity: 90%   Direction: 50°NE
Pressure: 29.89"   Gusts: NA
Location:  41.35°N, 71.98°W
Report Text: KGON 212356Z 05005KT 10SM BKN034 BKN041 OVC110 15/13 A2989 RMK AO2 SLP121 T01500133 10189 20133 53007
Loading
Personal Weather Stations






























Interactive Weather Map
Tropical Storm Tracking
New forecast layout! Learn more

10-Day Weather Forecast

Advertisements
Track Severe Weather on mobile